Accueil
METAR-TAF:

METAR-TAF

Aéroports :

Alpnach, Suisse

latitude: 46-56-19N, longitude: 8-17-03E, altitude: 440 m

Observation

Le bulletin a été fait il y a 32 minutes, à 13:50 UTC
Vent 5 kt de nord-est, variant entre nord et est/nord-est
Température 2°C
Humidité 80%
Pression 1032 hPa
Visibilité: 7000 m
Quelques nuages à une hauteur de 500 ft

METAR: LSMA 221350Z 04005KT 010V070 7000 FEW005 02/M01 Q1032 RMK WHT

Heure: 15:22 (14:22 UTC)


TAF: absent

Observations et prévisions météorologiques de plus de 4000 aéroports (messages METAR et TAF).

Les stations disponibles sont représentées par des disques jaunes et rouges sur la carte.

Passer la souris dessus pour voir le nom de la station.

Cliquer dessus pour voir les observations et prévisions météorologiques.

Pour changer de carte: cliquez sur les boutons verts avec une croix noire pour zoomer, sur le bouton vert avec un tiret pour effectuer un zoom arrière, ou sur les flèches vertes pour les cartes adjacentes.


METAR-TAF: